YMEK

Details ICAO YMEK (MKR)
Name Meekatharra
Region Australia
Timezone Australia/Perth (UTC+8.0)
Plans Departing 2
Arriving 6
Stats Elevation 1,713 ft / 522 m (AMSL)
Location -26.610631° 118.549259°
Runways 2
Magnetic Variation 0.602° E
Sunrise 2018-05-23 22:43:37 UTC / 2018-05-24 06:43:37 Local
Sunset 2018-05-24 09:24:28 UTC / 2018-05-24 17:24:28 Local
Advertisement - Login to hide

Runways

ID Width Length Bearing (true) Bearing (mag) Surface Threshold Offset Overrun Length
09 98 ft / 30 m 7,144 ft / 2,178 m 84.80° 84.20° Asphalt 0 ft / 0 m 112 ft / 34 m
15 269 ft / 82 m 3,910 ft / 1,192 m 139.11° 138.51° Dirt 0 ft / 0 m 0 ft / 0 m
27 98 ft / 30 m 7,144 ft / 2,178 m 264.80° 264.20° Asphalt 0 ft / 0 m 102 ft / 31 m
33 269 ft / 82 m 3,910 ft / 1,192 m 319.11° 318.51° Dirt 0 ft / 0 m 0 ft / 0 m

Map

Weather


0- 5 10 15 20 25 30 35+ Temperature / ° C

Clouds and Precipitation
Forecast for 2018-05-24 00:00 UTC. Updated 4 hours ago

Ground ~20,000 ft ~40,000 ft Winds

METAR

YMEK 240300Z AUTO 01011KT 9999 // NCD 24/M06 Q1017

TAF

Not found

Frequencies

Unicom 126.70 MHz CTAF
Warning: Do not use this data for real-world aviation or navigation. No guarantee of current accuracy is given.